This is the latest recevied weather packets stored in our database for station/object SA3PJN-WX. If no packets are shown the sender has not sent any weather packets the latest 10 day(s).
| Time | Temp. | Humidity | Pressure | Rain* | Wind** | Luminosity | Snow |
|---|---|---|---|---|---|---|---|
| 1777614176 | 11.67° C | 67% | 975.8 hPa | - | - | - | - |
| 1777613875 | 10.56° C | 70% | 975.9 hPa | - | - | - | - |
| 1777613575 | 10.56° C | 71% | 975.9 hPa | - | - | - | - |
| 1777613245 | 9.44° C | 74% | 975.7 hPa | - | - | - | - |
| 1777612915 | 8.89° C | 75% | 975.8 hPa | - | - | - | - |
| 1777612585 | 9.44° C | 70% | 975.9 hPa | - | - | - | - |
| 1777612285 | 10.56° C | 68% | 975.8 hPa | - | - | - | - |
| 1777611985 | 11.67° C | 63% | 975.6 hPa | - | - | - | - |
| 1777611685 | 11.67° C | 64% | 975.7 hPa | - | - | - | - |
| 1777611385 | 11.11° C | 64% | 975.8 hPa | - | - | - | - |
| 1777611085 | 11.67° C | 63% | 975.8 hPa | - | - | - | - |
| 1777610785 | 12.22° C | 62% | 975.8 hPa | - | - | - | - |
| 1777610485 | 12.22° C | 64% | 975.8 hPa | - | - | - | - |
| 1777610185 | 12.22° C | 65% | 975.8 hPa | - | - | - | - |
| 1777609885 | 12.22° C | 68% | 975.6 hPa | - | - | - | - |
| 1777609585 | 11.11° C | 70% | 975.6 hPa | - | - | - | - |
| 1777609285 | 9.44° C | 74% | 975.7 hPa | - | - | - | - |
| 1777608955 | 8.33° C | 77% | 975.7 hPa | - | - | - | - |
| 1777608625 | 8.33° C | 77% | 975.7 hPa | - | - | - | - |
| 1777608295 | 8.33° C | 79% | 975.9 hPa | - | - | - | - |
| 1777607995 | 7.78° C | 79% | 976.1 hPa | - | - | - | - |
| 1777607665 | 8.33° C | 78% | 976.1 hPa | - | - | - | - |
| 1777607335 | 7.78° C | 81% | 975.9 hPa | - | - | - | - |
| 1777607035 | 7.78° C | 82% | 975.9 hPa | - | - | - | - |
| 1777606705 | 7.22° C | 84% | 976 hPa | - | - | - | - |
* Rain since midnight (hover to see other rain measurements)
** Current wind speed in m/s (hover to see current wind gust speed)